Time;durP1;ratioP1;P1;durP2;ratioP2;P2;SDS_P1;SDS_P2;PMS_P1;PMS_P2;Temp;Humidity;BMP_temperature;BMP_pressure;BME280_temperature;BME280_humidity;BME280_pressure;Samples;Min_cycle;Max_cycle;Signal;HPM_P1;HPM_P2
2022/11/30 00:02:00;;;;;;;50.47;28.17;;;8.50;99.90;;;;;;4860778;29;20120;-65
2022/11/30 00:04:27;;;;;;;48.00;26.80;;;8.60;99.90;;;;;;4855129;29;20042;-64
2022/11/30 00:06:56;;;;;;;51.58;28.25;;;8.60;99.90;;;;;;4842243;29;20420;-66
2022/11/30 00:09:23;;;;;;;43.45;26.20;;;8.60;99.90;;;;;;4845291;29;20052;-65
2022/11/30 00:11:49;;;;;;;41.60;25.48;;;8.60;99.90;;;;;;4849445;29;20042;-65
2022/11/30 00:14:17;;;;;;;44.75;26.40;;;8.60;99.90;;;;;;4844784;29;20125;-66
2022/11/30 00:16:44;;;;;;;52.20;27.33;;;8.60;99.90;;;;;;4861717;29;20045;-65
2022/11/30 00:19:11;;;;;;;42.50;26.20;;;8.60;99.90;;;;;;4865848;29;20095;-65
2022/11/30 00:21:38;;;;;;;42.80;26.48;;;8.50;99.90;;;;;;4857464;29;20053;-64
2022/11/30 00:24:05;;;;;;;45.22;27.63;;;8.50;99.90;;;;;;4859505;29;20049;-64
2022/11/30 00:26:31;;;;;;;45.05;26.08;;;8.50;99.90;;;;;;4859273;29;20116;-65
2022/11/30 00:28:58;;;;;;;48.95;26.58;;;8.50;99.90;;;;;;4844345;29;20065;-64
2022/11/30 00:31:25;;;;;;;41.83;26.80;;;8.40;99.90;;;;;;4855945;29;20082;-64
2022/11/30 00:33:51;;;;;;;39.72;25.13;;;8.50;99.90;;;;;;4842722;29;20053;-67
2022/11/30 00:36:18;;;;;;;43.15;25.98;;;8.40;99.90;;;;;;4842831;29;20074;-64
2022/11/30 00:38:45;;;;;;;50.63;27.30;;;8.40;99.90;;;;;;4842759;29;20129;-64
2022/11/30 00:41:12;;;;;;;44.63;26.35;;;8.40;99.90;;;;;;4842748;29;20042;-66
2022/11/30 00:43:38;;;;;;;42.30;25.38;;;8.40;99.90;;;;;;4846369;29;20053;-65
2022/11/30 00:46:05;;;;;;;41.90;25.40;;;8.40;99.90;;;;;;4846640;29;20131;-64
2022/11/30 00:48:32;;;;;;;41.05;25.40;;;8.40;99.90;;;;;;4856994;29;20049;-66
2022/11/30 00:50:59;;;;;;;44.92;25.58;;;8.40;99.90;;;;;;4860112;29;20069;-65
2022/11/30 00:53:26;;;;;;;42.47;25.58;;;8.40;99.90;;;;;;4848716;29;20459;-65
2022/11/30 00:55:52;;;;;;;45.17;25.92;;;8.40;99.90;;;;;;4850896;29;20442;-64
2022/11/30 00:58:19;;;;;;;41.38;25.67;;;8.40;99.90;;;;;;4853676;29;20052;-65
2022/11/30 01:00:46;;;;;;;42.28;25.10;;;8.40;99.90;;;;;;4843213;29;20451;-64
2022/11/30 01:03:12;;;;;;;42.75;25.90;;;8.40;99.90;;;;;;4856460;29;20439;-64
2022/11/30 01:05:39;;;;;;;41.33;25.85;;;8.40;99.90;;;;;;4842920;29;20125;-64
2022/11/30 01:08:06;;;;;;;44.03;26.08;;;8.40;99.90;;;;;;4843549;29;20528;-64
2022/11/30 01:10:33;;;;;;;42.25;25.60;;;8.40;99.90;;;;;;4856525;29;20128;-65
2022/11/30 01:12:59;;;;;;;43.88;27.40;;;8.40;99.90;;;;;;4854321;29;20081;-65
2022/11/30 01:15:26;;;;;;;46.53;25.83;;;8.40;99.90;;;;;;4844493;29;20046;-66
2022/11/30 01:17:53;;;;;;;44.38;25.77;;;8.40;99.90;;;;;;4849479;29;20094;-64
2022/11/30 01:20:20;;;;;;;42.13;25.17;;;8.40;99.90;;;;;;4848568;29;20073;-65
2022/11/30 01:22:46;;;;;;;42.15;25.38;;;8.40;99.90;;;;;;4846607;29;20125;-64
2022/11/30 01:25:13;;;;;;;40.67;25.08;;;8.40;99.90;;;;;;4877206;29;20038;-65
2022/11/30 01:27:40;;;;;;;46.58;26.58;;;8.40;99.90;;;;;;4860166;29;20448;-65
2022/11/30 01:30:06;;;;;;;42.50;25.33;;;8.40;99.90;;;;;;4848426;29;20478;-64
2022/11/30 01:32:33;;;;;;;44.10;25.30;;;8.40;99.90;;;;;;4845694;29;20509;-64
2022/11/30 01:35:00;;;;;;;44.13;25.77;;;8.40;99.90;;;;;;4845939;29;20486;-64
2022/11/30 01:37:27;;;;;;;39.55;25.48;;;8.40;99.90;;;;;;4847381;29;20063;-65
2022/11/30 01:39:53;;;;;;;47.90;26.45;;;8.40;99.90;;;;;;4845688;29;20165;-66
2022/11/30 01:42:20;;;;;;;41.25;25.15;;;8.40;99.90;;;;;;4845869;29;20486;-65
2022/11/30 01:44:47;;;;;;;40.70;25.15;;;8.40;99.90;;;;;;4845842;29;20458;-64
2022/11/30 01:47:14;;;;;;;38.85;24.92;;;8.40;99.90;;;;;;4845702;29;20049;-64
2022/11/30 01:49:41;;;;;;;44.97;25.17;;;8.40;99.90;;;;;;4849254;29;20399;-65
2022/11/30 01:52:08;;;;;;;39.70;24.63;;;8.40;99.90;;;;;;4864044;29;20080;-66
2022/11/30 01:54:35;;;;;;;42.95;24.77;;;8.40;99.90;;;;;;4862634;29;20053;-65
2022/11/30 01:57:01;;;;;;;43.65;24.88;;;8.40;99.90;;;;;;4861098;29;20042;-65
2022/11/30 01:59:28;;;;;;;40.47;23.80;;;8.40;99.90;;;;;;4864105;29;20447;-65
2022/11/30 02:01:55;;;;;;;37.45;22.83;;;8.40;99.90;;;;;;4863814;29;20080;-64
2022/11/30 02:04:22;;;;;;;40.65;23.15;;;8.30;99.90;;;;;;4862634;29;20162;-65
2022/11/30 02:06:48;;;;;;;37.33;22.10;;;8.30;99.90;;;;;;4851693;29;20073;-64
2022/11/30 02:09:15;;;;;;;38.70;22.42;;;8.20;99.90;;;;;;4845142;29;20042;-65
2022/11/30 02:11:42;;;;;;;39.45;22.15;;;8.20;99.90;;;;;;4847138;29;20447;-64
2022/11/30 02:14:08;;;;;;;39.85;23.42;;;8.20;99.90;;;;;;4863605;29;20060;-65
2022/11/30 02:16:35;;;;;;;38.03;21.70;;;8.20;99.90;;;;;;4861031;29;20439;-65
2022/11/30 02:19:02;;;;;;;34.20;21.80;;;8.20;99.90;;;;;;4863731;29;20045;-65
2022/11/30 02:21:29;;;;;;;34.45;21.13;;;8.20;99.90;;;;;;4863353;29;20201;-64
2022/11/30 02:23:55;;;;;;;35.35;21.95;;;8.20;99.90;;;;;;4863695;29;20414;-64
2022/11/30 02:26:22;;;;;;;41.38;22.30;;;8.20;99.90;;;;;;4860358;29;20080;-66
2022/11/30 02:28:49;;;;;;;42.30;22.48;;;8.20;99.90;;;;;;4862520;29;20137;-66
2022/11/30 02:31:16;;;;;;;39.72;22.35;;;8.10;99.90;;;;;;4863444;29;20082;-64
2022/11/30 02:33:43;;;;;;;35.97;21.55;;;8.20;99.90;;;;;;4862960;29;20045;-65
2022/11/30 02:36:10;;;;;;;37.40;21.00;;;8.20;99.90;;;;;;4862340;29;20080;-66
2022/11/30 02:38:36;;;;;;;37.50;22.38;;;8.10;99.90;;;;;;4863398;29;20105;-65
2022/11/30 02:41:03;;;;;;;39.00;21.67;;;8.10;99.90;;;;;;4862389;29;20074;-64
2022/11/30 02:43:30;;;;;;;41.92;21.35;;;8.10;99.90;;;;;;4862986;29;20049;-64
2022/11/30 02:45:57;;;;;;;36.75;20.30;;;8.10;99.90;;;;;;4851176;29;20133;-64
2022/11/30 02:48:23;;;;;;;35.15;21.27;;;8.20;99.90;;;;;;4863439;29;20057;-65
2022/11/30 02:50:50;;;;;;;35.67;21.23;;;8.10;99.90;;;;;;4861846;29;20041;-65
2022/11/30 02:53:17;;;;;;;32.50;19.45;;;8.10;99.90;;;;;;4857329;29;20052;-66
2022/11/30 02:55:43;;;;;;;38.30;20.23;;;8.10;99.90;;;;;;4844312;29;20054;-65
2022/11/30 02:58:10;;;;;;;35.45;20.75;;;8.10;99.90;;;;;;4844395;29;20073;-66
2022/11/30 03:00:37;;;;;;;32.42;19.48;;;8.10;99.90;;;;;;4845860;29;20427;-65
2022/11/30 03:03:04;;;;;;;35.80;20.00;;;8.10;99.90;;;;;;4845142;29;20074;-65
2022/11/30 03:05:30;;;;;;;35.33;19.67;;;8.10;99.90;;;;;;4844086;29;20053;-64
2022/11/30 03:07:57;;;;;;;32.65;19.77;;;8.10;99.90;;;;;;4844286;29;20478;-65
2022/11/30 03:10:24;;;;;;;34.47;20.48;;;8.10;99.90;;;;;;4858001;29;20049;-65
2022/11/30 03:12:51;;;;;;;34.67;20.17;;;8.20;99.90;;;;;;4862791;29;20053;-64
2022/11/30 03:15:17;;;;;;;29.67;18.52;;;8.20;99.90;;;;;;4861804;29;20045;-65
2022/11/30 03:17:44;;;;;;;32.17;19.02;;;8.20;99.90;;;;;;4862749;29;20417;-64
2022/11/30 03:20:11;;;;;;;31.52;18.90;;;8.20;99.90;;;;;;4860534;29;20138;-65
2022/11/30 03:22:37;;;;;;;32.22;20.17;;;8.20;99.90;;;;;;4862703;29;20390;-64
2022/11/30 03:25:04;;;;;;;37.30;20.17;;;8.20;99.90;;;;;;4861464;29;20069;-64
2022/11/30 03:27:31;;;;;;;34.63;19.55;;;8.20;99.90;;;;;;4862604;29;20082;-65
2022/11/30 03:29:58;;;;;;;33.72;19.95;;;8.20;99.90;;;;;;4860234;29;20084;-65
2022/11/30 03:32:24;;;;;;;32.35;19.42;;;8.20;99.90;;;;;;4862176;29;20114;-65
2022/11/30 03:34:51;;;;;;;32.13;19.38;;;8.20;99.90;;;;;;4860889;29;20084;-65
2022/11/30 03:37:18;;;;;;;34.05;19.60;;;8.20;99.90;;;;;;4861574;29;20111;-65
2022/11/30 03:39:45;;;;;;;32.58;19.30;;;8.20;99.90;;;;;;4861196;29;20486;-65
2022/11/30 03:42:11;;;;;;;34.80;20.33;;;8.20;99.90;;;;;;4862120;29;20066;-64
2022/11/30 03:44:38;;;;;;;35.17;20.02;;;8.20;99.90;;;;;;4862077;29;20037;-64
2022/11/30 03:47:05;;;;;;;31.73;20.27;;;8.20;99.90;;;;;;4846899;29;20052;-66
2022/11/30 03:49:31;;;;;;;37.50;20.13;;;8.20;99.90;;;;;;4844031;29;20498;-64
2022/11/30 03:51:58;;;;;;;34.38;20.63;;;8.20;99.90;;;;;;4862047;29;20077;-64
2022/11/30 03:54:25;;;;;;;38.53;21.33;;;8.30;99.90;;;;;;4858532;29;20056;-65
2022/11/30 03:56:52;;;;;;;35.67;20.90;;;8.30;99.90;;;;;;4843262;29;20045;-64
2022/11/30 03:59:18;;;;;;;37.03;21.10;;;8.30;99.90;;;;;;4854245;29;20477;-65
2022/11/30 04:01:45;;;;;;;31.25;21.20;;;8.30;99.90;;;;;;4844073;29;20077;-64
2022/11/30 04:04:12;;;;;;;35.72;21.90;;;8.30;99.90;;;;;;4843575;29;20459;-65
2022/11/30 04:06:39;;;;;;;33.75;20.67;;;8.40;99.90;;;;;;4842999;29;20137;-65
2022/11/30 04:09:06;;;;;;;34.55;20.90;;;8.30;99.90;;;;;;4843232;29;20054;-65
2022/11/30 04:11:34;;;;;;;35.25;20.25;;;8.30;99.90;;;;;;4844620;29;20045;-65
2022/11/30 04:14:01;;;;;;;35.97;20.85;;;8.30;99.90;;;;;;4843300;29;20102;-65
2022/11/30 04:16:28;;;;;;;35.00;20.08;;;8.30;99.90;;;;;;4841425;29;20455;-65
2022/11/30 04:18:54;;;;;;;38.22;21.17;;;8.30;99.90;;;;;;4845598;29;20041;-65
2022/11/30 04:21:21;;;;;;;39.00;21.75;;;8.30;99.90;;;;;;4861371;29;20132;-64
2022/11/30 04:23:48;;;;;;;37.17;19.90;;;8.30;99.90;;;;;;4875742;29;20554;-64
2022/11/30 04:26:15;;;;;;;36.67;21.17;;;8.40;99.90;;;;;;4861332;29;20046;-65
2022/11/30 04:28:42;;;;;;;35.63;21.83;;;8.40;99.90;;;;;;4858472;29;20081;-66
2022/11/30 04:31:09;;;;;;;36.45;21.33;;;8.40;99.90;;;;;;4861063;29;20049;-65
2022/11/30 04:33:35;;;;;;;38.00;21.70;;;8.30;99.90;;;;;;4861052;29;20136;-65
2022/11/30 04:36:02;;;;;;;40.05;22.67;;;8.30;99.90;;;;;;4856235;29;20061;-66
2022/11/30 04:38:29;;;;;;;37.72;21.00;;;8.30;99.90;;;;;;4842776;29;20077;-65
2022/11/30 04:40:56;;;;;;;38.33;21.95;;;8.30;99.90;;;;;;4843072;29;20439;-66
2022/11/30 04:43:22;;;;;;;38.47;22.15;;;8.30;99.90;;;;;;4841765;29;20395;-64
2022/11/30 04:45:49;;;;;;;37.47;22.85;;;8.20;99.90;;;;;;4845809;29;20108;-66
2022/11/30 04:48:16;;;;;;;41.78;22.83;;;8.20;99.90;;;;;;4842698;29;20046;-65
2022/11/30 04:50:43;;;;;;;33.22;21.48;;;8.20;99.90;;;;;;4846245;29;20046;-66
2022/11/30 04:53:09;;;;;;;34.15;20.92;;;8.20;99.90;;;;;;4853063;29;20051;-65
2022/11/30 04:55:36;;;;;;;34.10;19.38;;;8.20;99.90;;;;;;4855866;29;20042;-65
2022/11/30 04:58:03;;;;;;;39.03;22.20;;;8.20;99.90;;;;;;4857915;29;20041;-64
2022/11/30 05:00:30;;;;;;;31.88;20.40;;;8.20;99.90;;;;;;4863673;29;20421;-64
2022/11/30 05:02:56;;;;;;;36.47;20.63;;;8.20;99.90;;;;;;4852087;29;20520;-65
2022/11/30 05:05:23;;;;;;;38.92;22.27;;;8.20;99.90;;;;;;4846256;29;20060;-66
2022/11/30 05:07:50;;;;;;;36.78;21.05;;;8.20;99.90;;;;;;4856089;29;20109;-65
2022/11/30 05:10:17;;;;;;;38.10;21.88;;;8.10;99.90;;;;;;4864738;29;20049;-65
2022/11/30 05:12:44;;;;;;;37.58;22.65;;;8.10;99.90;;;;;;4862445;29;20057;-66
2022/11/30 05:15:10;;;;;;;39.25;21.92;;;8.10;99.90;;;;;;4859517;29;20049;-64
2022/11/30 05:17:37;;;;;;;39.40;22.77;;;8.10;99.90;;;;;;4864532;29;20076;-65
2022/11/30 05:20:04;;;;;;;39.08;21.77;;;8.10;99.90;;;;;;4853932;29;20073;-66
2022/11/30 05:22:33;;;;;;;42.42;23.25;;;8.10;99.90;;;;;;4848369;29;20045;-65
2022/11/30 05:25:00;;;;;;;44.15;23.92;;;8.10;99.90;;;;;;4845870;29;20102;-64
2022/11/30 05:27:27;;;;;;;42.08;22.95;;;8.10;99.90;;;;;;4846106;29;20054;-65
2022/11/30 05:29:53;;;;;;;41.05;22.60;;;8.10;99.90;;;;;;4845803;29;20058;-66
2022/11/30 05:32:20;;;;;;;39.58;22.23;;;8.00;99.90;;;;;;4845485;29;20042;-65
2022/11/30 05:34:47;;;;;;;45.50;24.30;;;8.00;99.90;;;;;;4845348;29;20062;-64
2022/11/30 05:37:17;;;;;;;43.30;24.42;;;8.00;99.90;;;;;;4858634;29;20045;-63
2022/11/30 05:39:43;;;;;;;44.85;24.60;;;8.00;99.90;;;;;;4845529;29;20048;-63
2022/11/30 05:42:10;;;;;;;47.58;24.92;;;8.00;99.90;;;;;;4845902;29;20038;-64
2022/11/30 05:44:37;;;;;;;41.47;23.55;;;8.00;99.90;;;;;;4846334;29;20042;-64
2022/11/30 05:47:04;;;;;;;45.10;24.00;;;7.90;99.90;;;;;;4856981;29;20053;-64
2022/11/30 05:49:30;;;;;;;46.50;23.60;;;7.90;99.90;;;;;;4862873;29;20069;-64
2022/11/30 05:51:57;;;;;;;48.53;23.20;;;7.90;99.90;;;;;;4857578;29;20065;-64
2022/11/30 05:54:24;;;;;;;39.22;22.25;;;7.90;99.90;;;;;;4845546;29;20517;-64
2022/11/30 05:56:51;;;;;;;40.88;23.38;;;7.90;99.90;;;;;;4844361;29;20046;-64
2022/11/30 05:59:20;;;;;;;39.97;23.02;;;7.90;99.90;;;;;;4853790;29;20084;-64
2022/11/30 06:01:47;;;;;;;39.65;22.75;;;7.90;99.90;;;;;;4851224;29;20038;-64
2022/11/30 06:04:14;;;;;;;39.60;22.50;;;7.90;99.90;;;;;;4853344;29;20044;-65
2022/11/30 06:06:41;;;;;;;38.63;22.38;;;7.90;99.90;;;;;;4863739;29;20105;-64
2022/11/30 06:09:08;;;;;;;40.47;21.83;;;7.90;99.90;;;;;;4859857;29;20049;-63
2022/11/30 06:11:34;;;;;;;33.75;20.60;;;7.90;99.90;;;;;;4855946;29;20045;-64
2022/11/30 06:14:01;;;;;;;41.47;22.33;;;7.90;99.90;;;;;;4852610;29;20049;-63
2022/11/30 06:16:28;;;;;;;40.17;22.10;;;8.00;99.90;;;;;;4848009;29;20432;-64
2022/11/30 06:18:55;;;;;;;38.80;21.40;;;8.00;99.90;;;;;;4844840;29;20550;-64
2022/11/30 06:21:21;;;;;;;39.72;22.13;;;8.00;99.90;;;;;;4845216;29;20042;-64
2022/11/30 06:23:50;;;;;;;34.90;22.15;;;8.00;99.90;;;;;;4845274;29;20053;-64
2022/11/30 06:26:17;;;;;;;36.63;20.80;;;8.00;99.90;;;;;;4850875;29;20080;-64
2022/11/30 06:28:43;;;;;;;36.00;20.73;;;7.90;99.90;;;;;;4845406;29;20054;-64
2022/11/30 06:31:15;;;;;;;34.30;19.85;;;7.90;99.90;;;;;;4844554;29;20497;-65
2022/11/30 06:33:42;;;;;;;38.20;20.48;;;7.90;99.90;;;;;;4845080;29;20081;-64
2022/11/30 06:36:09;;;;;;;36.17;21.45;;;7.90;99.90;;;;;;4844539;29;20482;-64
2022/11/30 06:38:35;;;;;;;35.97;21.45;;;7.90;99.90;;;;;;4844690;29;20045;-64
2022/11/30 06:41:02;;;;;;;37.33;20.30;;;7.90;99.90;;;;;;4845559;29;20034;-65
2022/11/30 06:43:29;;;;;;;36.22;20.25;;;7.90;99.90;;;;;;4846683;29;20466;-65
2022/11/30 06:45:56;;;;;;;33.63;19.63;;;7.90;99.90;;;;;;4854757;29;20042;-64
2022/11/30 06:48:22;;;;;;;29.52;18.92;;;7.90;99.90;;;;;;4858262;29;20049;-65
2022/11/30 06:50:49;;;;;;;31.10;18.58;;;7.90;99.90;;;;;;4847611;29;20207;-65
2022/11/30 06:53:16;;;;;;;33.08;19.50;;;7.90;99.90;;;;;;4846021;29;20442;-64
2022/11/30 06:55:42;;;;;;;37.10;20.80;;;7.90;99.90;;;;;;4853960;29;20055;-66
2022/11/30 06:58:09;;;;;;;34.05;19.40;;;7.90;99.90;;;;;;4858017;29;20042;-65
2022/11/30 07:00:36;;;;;;;38.47;20.35;;;7.90;99.90;;;;;;4850126;29;20042;-65
2022/11/30 07:03:03;;;;;;;37.20;19.80;;;7.90;99.90;;;;;;4848295;29;20054;-66
2022/11/30 07:05:30;;;;;;;46.22;20.00;;;7.90;99.90;;;;;;4844122;29;20045;-65
2022/11/30 07:07:57;;;;;;;37.08;20.83;;;7.90;99.90;;;;;;4848028;29;20048;-65
2022/11/30 07:10:26;;;;;;;37.40;20.73;;;7.90;99.90;;;;;;4851498;29;20131;-64
2022/11/30 07:12:53;;;;;;;30.60;19.73;;;7.90;99.90;;;;;;4859718;29;20386;-66
2022/11/30 07:15:20;;;;;;;30.25;19.63;;;7.90;99.90;;;;;;4858335;29;20098;-65
2022/11/30 07:17:47;;;;;;;44.67;22.80;;;7.90;99.90;;;;;;4853422;29;20090;-66
2022/11/30 07:20:13;;;;;;;33.72;21.27;;;7.90;99.90;;;;;;4857743;29;20045;-65
2022/11/30 07:22:40;;;;;;;35.85;20.63;;;7.90;99.90;;;;;;4858939;29;20044;-65
2022/11/30 07:27:53;;;;;;;34.05;20.05;;;7.90;99.90;;;;;;4843849;29;20124;-65
2022/11/30 07:30:19;;;;;;;33.35;20.13;;;7.90;99.90;;;;;;4845940;29;20507;-65
2022/11/30 07:32:46;;;;;;;35.78;19.52;;;7.90;99.90;;;;;;4855478;29;20519;-65
2022/11/30 07:35:13;;;;;;;37.03;21.50;;;7.90;99.90;;;;;;4853915;29;20410;-65
2022/11/30 07:37:40;;;;;;;30.63;20.00;;;7.90;99.90;;;;;;4849348;29;20050;-65
2022/11/30 07:40:06;;;;;;;32.67;19.48;;;7.90;99.90;;;;;;4847608;29;20116;-65
2022/11/30 07:42:35;;;;;;;41.90;22.65;;;7.90;99.90;;;;;;4856766;29;20669;-65
2022/11/30 07:45:02;;;;;;;36.55;20.67;;;7.90;99.90;;;;;;4847793;29;20136;-65
2022/11/30 07:47:29;;;;;;;37.08;22.42;;;7.90;99.90;;;;;;4851810;29;20402;-65
2022/11/30 07:49:56;;;;;;;37.35;21.67;;;7.90;99.90;;;;;;4844574;29;20453;-65
2022/11/30 07:52:22;;;;;;;40.10;22.50;;;8.00;99.90;;;;;;4852823;29;20057;-65
2022/11/30 07:54:49;;;;;;;43.10;22.33;;;8.00;99.90;;;;;;4847129;29;20038;-64
2022/11/30 07:57:16;;;;;;;39.10;21.27;;;8.00;99.90;;;;;;4844856;29;20122;-65
2022/11/30 07:59:43;;;;;;;33.13;20.20;;;8.00;99.90;;;;;;4850876;29;20981;-65
2022/11/30 08:02:10;;;;;;;42.70;21.48;;;8.00;99.90;;;;;;4854747;29;20128;-66
2022/11/30 08:04:37;;;;;;;38.22;20.40;;;8.00;99.90;;;;;;4852916;29;20122;-65
2022/11/30 08:07:04;;;;;;;32.22;19.48;;;8.00;99.90;;;;;;4857300;29;20042;-64
2022/11/30 08:09:30;;;;;;;34.45;20.05;;;8.00;99.90;;;;;;4856955;29;20093;-66
2022/11/30 08:11:57;;;;;;;36.03;19.90;;;8.00;99.90;;;;;;4849819;29;20044;-66
2022/11/30 08:14:24;;;;;;;33.45;19.88;;;7.90;99.90;;;;;;4852503;29;20042;-65
2022/11/30 08:16:50;;;;;;;34.15;19.27;;;7.90;99.90;;;;;;4847876;29;20052;-64
2022/11/30 08:19:18;;;;;;;33.53;19.58;;;7.90;99.90;;;;;;4847808;29;20042;-65
2022/11/30 08:21:45;;;;;;;29.42;17.45;;;7.90;99.90;;;;;;4848952;29;20431;-65
2022/11/30 08:24:15;;;;;;;28.27;16.83;;;8.00;99.90;;;;;;4852446;29;20042;-64
2022/11/30 08:26:42;;;;;;;29.35;17.55;;;7.90;99.90;;;;;;4852850;29;20033;-64
2022/11/30 08:29:09;;;;;;;32.58;17.67;;;7.90;99.90;;;;;;4860200;29;20136;-67
2022/11/30 08:31:36;;;;;;;25.52;15.73;;;7.90;99.90;;;;;;4839324;29;20081;-67
2022/11/30 08:34:03;;;;;;;34.58;18.02;;;7.90;99.90;;;;;;4847250;29;20058;-65
2022/11/30 08:36:29;;;;;;;34.53;18.30;;;8.00;99.90;;;;;;4846242;29;20046;-64
2022/11/30 08:38:56;;;;;;;30.75;16.88;;;7.90;99.90;;;;;;4846822;29;20046;-64
2022/11/30 08:41:23;;;;;;;32.15;16.83;;;7.90;99.90;;;;;;4856227;29;20049;-64
2022/11/30 08:43:49;;;;;;;26.85;14.70;;;8.00;99.90;;;;;;4851428;29;20038;-65
2022/11/30 08:46:16;;;;;;;26.50;14.43;;;7.90;99.90;;;;;;4852690;29;20042;-65
2022/11/30 08:49:03;;;;;;;27.20;15.48;;;7.90;99.90;;;;;;4850705;29;20433;-65
2022/11/30 08:51:47;;;;;;;25.48;14.00;;;7.90;99.90;;;;;;4845431;29;20118;-65
2022/11/30 08:54:34;;;;;;;24.23;14.52;;;7.90;99.90;;;;;;4854313;29;20049;-65
2022/11/30 08:57:00;;;;;;;22.60;13.18;;;8.00;99.90;;;;;;4849441;29;20073;-64
2022/11/30 08:59:27;;;;;;;22.00;12.98;;;8.00;99.90;;;;;;4843756;29;20055;-64
2022/11/30 09:01:54;;;;;;;21.33;11.93;;;8.10;99.90;;;;;;4861701;29;20460;-64
2022/11/30 09:04:21;;;;;;;18.27;10.77;;;8.10;99.90;;;;;;4845468;29;20066;-64
2022/11/30 09:06:47;;;;;;;21.27;11.90;;;8.10;99.90;;;;;;4864254;29;20504;-65
2022/11/30 09:09:14;;;;;;;19.08;11.38;;;8.00;99.90;;;;;;4849491;29;20050;-65
2022/11/30 09:11:41;;;;;;;19.65;11.95;;;8.00;99.90;;;;;;4850645;29;20050;-65
2022/11/30 09:14:07;;;;;;;22.38;11.40;;;8.00;99.90;;;;;;4854236;29;20047;-64
2022/11/30 09:16:34;;;;;;;24.67;12.45;;;7.90;99.90;;;;;;4844122;29;20443;-66
2022/11/30 09:19:01;;;;;;;24.02;11.55;;;7.90;99.90;;;;;;4845215;29;20073;-64
2022/11/30 09:21:28;;;;;;;20.98;11.77;;;7.90;99.90;;;;;;4845497;29;20040;-64
2022/11/30 09:23:55;;;;;;;24.05;12.88;;;7.90;99.90;;;;;;4849778;29;20038;-65
2022/11/30 09:26:24;;;;;;;21.70;11.88;;;7.80;99.90;;;;;;4859113;29;20446;-65
2022/11/30 09:28:50;;;;;;;24.50;12.48;;;7.90;99.90;;;;;;4844453;29;20062;-66
2022/11/30 09:31:17;;;;;;;21.77;12.75;;;7.90;99.90;;;;;;4855627;29;20140;-64
2022/11/30 09:33:44;;;;;;;25.08;13.02;;;8.00;99.90;;;;;;4851584;29;20133;-65
2022/11/30 09:36:11;;;;;;;25.90;13.43;;;8.00;99.90;;;;;;4856494;29;20402;-64
2022/11/30 09:38:37;;;;;;;20.80;10.98;;;8.00;99.90;;;;;;4851262;29;20041;-64
2022/11/30 09:41:04;;;;;;;28.75;12.48;;;8.00;99.90;;;;;;4849538;29;20037;-65
2022/11/30 09:43:31;;;;;;;22.73;12.05;;;7.90;99.90;;;;;;4858215;29;20149;-64
2022/11/30 09:45:58;;;;;;;25.08;12.35;;;7.90;99.90;;;;;;4853216;29;20042;-65
2022/11/30 09:48:25;;;;;;;25.30;13.13;;;7.90;99.90;;;;;;4853518;29;20455;-65
2022/11/30 09:50:52;;;;;;;19.65;11.43;;;7.90;99.90;;;;;;4852212;29;20054;-63
2022/11/30 09:53:18;;;;;;;20.80;12.15;;;7.90;99.90;;;;;;4854690;29;20408;-64
2022/11/30 09:55:53;;;;;;;26.17;14.88;;;7.90;99.90;;;;;;4850430;29;20050;-65
2022/11/30 09:58:20;;;;;;;23.98;13.52;;;8.00;99.90;;;;;;4847333;29;20104;-66
2022/11/30 10:00:47;;;;;;;21.83;13.98;;;8.00;99.90;;;;;;4855389;29;20126;-65
2022/11/30 10:03:14;;;;;;;19.13;12.15;;;8.10;99.90;;;;;;4858066;29;20060;-64
2022/11/30 10:05:40;;;;;;;15.30;10.40;;;8.10;99.90;;;;;;4855524;29;20458;-65
2022/11/30 10:08:07;;;;;;;13.98;9.88;;;8.10;99.90;;;;;;4849006;29;20103;-64
2022/11/30 10:10:34;;;;;;;14.45;9.45;;;8.20;99.90;;;;;;4849480;29;20049;-66
2022/11/30 10:13:01;;;;;;;15.82;10.02;;;8.20;99.90;;;;;;4850008;29;20050;-64
2022/11/30 10:15:28;;;;;;;14.75;9.95;;;8.20;99.90;;;;;;4850680;29;20554;-64
2022/11/30 10:17:55;;;;;;;21.90;11.18;;;8.20;99.90;;;;;;4861300;29;20049;-64
2022/11/30 10:20:21;;;;;;;16.52;10.35;;;8.20;99.90;;;;;;4855037;29;20045;-65
2022/11/30 10:22:48;;;;;;;18.50;10.77;;;8.20;99.90;;;;;;4850349;29;20098;-64
2022/11/30 10:25:15;;;;;;;14.32;9.30;;;8.20;99.90;;;;;;4846596;29;20046;-64
2022/11/30 10:27:41;;;;;;;15.77;9.23;;;8.30;99.90;;;;;;4846440;29;20074;-64
2022/11/30 10:30:08;;;;;;;17.15;10.32;;;8.30;99.90;;;;;;4849162;29;20123;-64
2022/11/30 10:32:35;;;;;;;16.88;10.73;;;8.30;99.90;;;;;;4847840;29;20385;-66
2022/11/30 10:35:02;;;;;;;18.92;12.25;;;8.30;99.90;;;;;;4856748;29;20073;-65
2022/11/30 10:37:29;;;;;;;22.52;13.05;;;8.30;99.90;;;;;;4857940;29;20097;-64
2022/11/30 10:39:58;;;;;;;16.65;11.50;;;8.30;99.90;;;;;;4854260;29;20053;-64
2022/11/30 10:42:25;;;;;;;21.98;13.27;;;8.30;99.90;;;;;;4847607;29;20038;-65
2022/11/30 10:44:52;;;;;;;21.27;13.32;;;8.30;99.90;;;;;;4854939;29;20034;-65
2022/11/30 10:47:18;;;;;;;17.95;11.70;;;8.30;99.90;;;;;;4847455;29;20387;-64
2022/11/30 10:49:45;;;;;;;16.95;11.15;;;8.30;99.90;;;;;;4845164;29;20081;-65
2022/11/30 10:52:12;;;;;;;19.30;11.50;;;8.30;99.90;;;;;;4854291;29;20429;-66
2022/11/30 10:54:39;;;;;;;20.45;12.60;;;8.30;99.90;;;;;;4857216;29;20132;-65
2022/11/30 10:57:05;;;;;;;17.05;11.75;;;8.40;99.90;;;;;;4862304;29;20054;-65
2022/11/30 10:59:32;;;;;;;15.73;10.38;;;8.40;99.90;;;;;;4858900;29;20069;-65
2022/11/30 11:02:00;;;;;;;14.95;10.18;;;8.40;99.90;;;;;;4856419;29;20053;-64
2022/11/30 11:04:26;;;;;;;16.65;12.20;;;8.40;99.90;;;;;;4855082;29;20046;-65
2022/11/30 11:06:54;;;;;;;17.88;11.63;;;8.40;99.90;;;;;;4843368;29;20046;-65
2022/11/30 11:09:21;;;;;;;17.27;11.60;;;8.40;99.90;;;;;;4849104;29;20053;-64
2022/11/30 11:11:47;;;;;;;13.48;10.20;;;8.50;99.90;;;;;;4856211;29;20065;-65
2022/11/30 11:14:14;;;;;;;19.60;10.80;;;8.50;99.90;;;;;;4853694;29;20049;-64
2022/11/30 11:16:41;;;;;;;14.57;10.05;;;8.60;99.90;;;;;;4848214;29;20049;-64
2022/11/30 11:19:08;;;;;;;12.30;8.32;;;8.60;99.90;;;;;;4848990;29;20074;-64
2022/11/30 11:21:34;;;;;;;13.90;9.43;;;8.60;99.90;;;;;;4850338;29;20120;-64
2022/11/30 11:24:01;;;;;;;13.57;8.80;;;8.70;99.90;;;;;;4851824;29;20058;-64
2022/11/30 11:26:28;;;;;;;11.63;8.27;;;8.70;99.90;;;;;;4852763;29;20486;-64
2022/11/30 11:28:55;;;;;;;11.18;9.05;;;8.70;99.90;;;;;;4855096;29;20430;-65
2022/11/30 11:31:21;;;;;;;14.60;9.10;;;8.70;99.90;;;;;;4844693;29;20455;-64
2022/11/30 11:33:48;;;;;;;15.10;9.82;;;8.70;99.90;;;;;;4846449;29;20406;-64
2022/11/30 11:36:15;;;;;;;13.25;10.25;;;8.80;99.90;;;;;;4845786;29;20141;-65
2022/11/30 11:38:42;;;;;;;12.25;9.95;;;8.80;99.90;;;;;;4849045;29;20509;-66
2022/11/30 11:41:08;;;;;;;12.10;9.75;;;8.90;99.90;;;;;;4853433;29;20057;-64
2022/11/30 11:43:35;;;;;;;14.32;10.00;;;9.00;99.90;;;;;;4852108;29;20170;-64
2022/11/30 11:46:02;;;;;;;12.63;9.60;;;9.00;99.90;;;;;;4852273;29;20045;-65
2022/11/30 11:48:28;;;;;;;15.15;11.50;;;9.00;99.90;;;;;;4855579;29;20455;-65
2022/11/30 11:50:55;;;;;;;14.38;11.43;;;9.10;99.90;;;;;;4843318;29;20211;-64
2022/11/30 11:53:37;;;;;;;15.07;10.57;;;9.10;99.90;;;;;;4845690;29;20046;-66
2022/11/30 11:56:13;;;;;;;16.95;10.38;;;9.10;99.90;;;;;;4841206;29;20053;-67
2022/11/30 11:58:39;;;;;;;17.10;10.55;;;9.10;99.90;;;;;;4840936;29;20037;-64
2022/11/30 12:01:07;;;;;;;16.08;10.43;;;9.10;99.90;;;;;;4843413;29;20049;-65
2022/11/30 12:03:53;;;;;;;15.18;9.75;;;9.10;99.90;;;;;;4842169;29;20052;-64
2022/11/30 12:06:20;;;;;;;13.82;9.80;;;9.10;99.90;;;;;;4841513;29;20482;-64
2022/11/30 12:08:47;;;;;;;13.80;9.40;;;9.10;99.90;;;;;;4842693;29;20053;-64
2022/11/30 12:11:14;;;;;;;17.75;10.52;;;9.20;99.90;;;;;;4849263;29;20092;-64
2022/11/30 12:13:40;;;;;;;12.13;9.60;;;9.20;99.90;;;;;;4861225;29;20087;-67
2022/11/30 12:16:07;;;;;;;15.88;10.55;;;9.20;99.90;;;;;;4861065;29;20065;-65
2022/11/30 12:18:34;;;;;;;12.63;8.95;;;9.20;99.90;;;;;;4861149;29;20132;-65
2022/11/30 12:21:01;;;;;;;11.30;8.48;;;9.30;99.90;;;;;;4861299;29;20041;-66
2022/11/30 12:23:28;;;;;;;15.07;9.07;;;9.30;99.90;;;;;;4861078;29;20053;-65
2022/11/30 12:25:55;;;;;;;14.50;9.05;;;9.30;99.90;;;;;;4859678;29;20446;-64
2022/11/30 12:28:22;;;;;;;12.93;9.73;;;9.30;99.90;;;;;;4860864;29;20062;-64
2022/11/30 12:30:48;;;;;;;13.52;9.85;;;9.40;99.90;;;;;;4844754;29;20049;-64
2022/11/30 12:33:15;;;;;;;11.23;9.30;;;9.40;99.90;;;;;;4861253;29;20461;-64
2022/11/30 12:35:42;;;;;;;12.95;9.15;;;9.50;99.90;;;;;;4861116;29;20062;-65
2022/11/30 12:38:08;;;;;;;12.20;9.52;;;9.50;99.90;;;;;;4859787;29;20386;-65
2022/11/30 12:40:35;;;;;;;13.75;9.73;;;9.50;99.90;;;;;;4861092;29;20050;-64